sensor_id;sensor_type;location;lat;lon;timestamp;temperature;humidity
21104;DHT22;10710;53.398;-1.514;2023-04-03T00:00:23;4.60;99.90
21104;DHT22;10710;53.398;-1.514;2023-04-03T00:03:08;4.60;99.90
21104;DHT22;10710;53.398;-1.514;2023-04-03T00:05:52;4.60;99.90
21104;DHT22;10710;53.398;-1.514;2023-04-03T00:08:38;4.50;99.90
21104;DHT22;10710;53.398;-1.514;2023-04-03T00:11:22;4.40;99.90
21104;DHT22;10710;53.398;-1.514;2023-04-03T00:14:07;4.40;99.90
21104;DHT22;10710;53.398;-1.514;2023-04-03T00:16:51;4.30;99.90
21104;DHT22;10710;53.398;-1.514;2023-04-03T00:19:35;4.30;99.90
21104;DHT22;10710;53.398;-1.514;2023-04-03T00:22:19;4.30;99.90
21104;DHT22;10710;53.398;-1.514;2023-04-03T00:25:04;4.30;99.90
21104;DHT22;10710;53.398;-1.514;2023-04-03T00:27:48;4.30;99.90
21104;DHT22;10710;53.398;-1.514;2023-04-03T00:30:33;4.20;99.90
21104;DHT22;10710;53.398;-1.514;2023-04-03T00:33:18;4.30;99.90
21104;DHT22;10710;53.398;-1.514;2023-04-03T00:36:07;4.30;99.90
21104;DHT22;10710;53.398;-1.514;2023-04-03T00:38:52;4.20;99.90
21104;DHT22;10710;53.398;-1.514;2023-04-03T00:41:36;4.10;99.90
21104;DHT22;10710;53.398;-1.514;2023-04-03T00:45:21;4.10;99.90
21104;DHT22;10710;53.398;-1.514;2023-04-03T00:47:27;4.10;99.90
21104;DHT22;10710;53.398;-1.514;2023-04-03T00:50:12;4.10;99.90
21104;DHT22;10710;53.398;-1.514;2023-04-03T00:52:57;4.10;99.90
21104;DHT22;10710;53.398;-1.514;2023-04-03T00:55:43;4.00;99.90
21104;DHT22;10710;53.398;-1.514;2023-04-03T00:58:43;4.00;99.90
21104;DHT22;10710;53.398;-1.514;2023-04-03T01:01:29;4.00;99.90
21104;DHT22;10710;53.398;-1.514;2023-04-03T01:04:38;3.90;99.90
21104;DHT22;10710;53.398;-1.514;2023-04-03T01:07:27;3.90;99.90
21104;DHT22;10710;53.398;-1.514;2023-04-03T01:10:15;3.90;99.90
21104;DHT22;10710;53.398;-1.514;2023-04-03T01:13:00;3.90;99.90
21104;DHT22;10710;53.398;-1.514;2023-04-03T01:15:45;3.80;99.90
21104;DHT22;10710;53.398;-1.514;2023-04-03T01:18:30;3.80;99.90
21104;DHT22;10710;53.398;-1.514;2023-04-03T01:24:24;3.80;99.90
21104;DHT22;10710;53.398;-1.514;2023-04-03T01:27:11;3.70;99.90
21104;DHT22;10710;53.398;-1.514;2023-04-03T01:29:56;3.70;99.90
21104;DHT22;10710;53.398;-1.514;2023-04-03T01:32:40;3.70;99.90
21104;DHT22;10710;53.398;-1.514;2023-04-03T01:35:25;3.70;99.90
21104;DHT22;10710;53.398;-1.514;2023-04-03T01:38:09;3.80;99.90
21104;DHT22;10710;53.398;-1.514;2023-04-03T01:40:54;3.70;99.90
21104;DHT22;10710;53.398;-1.514;2023-04-03T01:43:39;3.60;99.90
21104;DHT22;10710;53.398;-1.514;2023-04-03T01:46:23;3.60;99.90
21104;DHT22;10710;53.398;-1.514;2023-04-03T01:49:09;3.60;99.90
21104;DHT22;10710;53.398;-1.514;2023-04-03T01:51:53;3.60;99.90
21104;DHT22;10710;53.398;-1.514;2023-04-03T01:54:37;3.60;99.90
21104;DHT22;10710;53.398;-1.514;2023-04-03T01:57:21;3.60;99.90
21104;DHT22;10710;53.398;-1.514;2023-04-03T02:00:06;3.50;99.90
21104;DHT22;10710;53.398;-1.514;2023-04-03T02:02:51;3.50;99.90
21104;DHT22;10710;53.398;-1.514;2023-04-03T02:05:36;3.50;99.90
21104;DHT22;10710;53.398;-1.514;2023-04-03T02:08:20;3.50;99.90
21104;DHT22;10710;53.398;-1.514;2023-04-03T02:11:05;3.50;99.90
21104;DHT22;10710;53.398;-1.514;2023-04-03T02:13:49;3.40;99.90
21104;DHT22;10710;53.398;-1.514;2023-04-03T02:16:34;3.40;99.90
21104;DHT22;10710;53.398;-1.514;2023-04-03T02:19:18;3.30;99.90
21104;DHT22;10710;53.398;-1.514;2023-04-03T02:22:05;3.30;99.90
21104;DHT22;10710;53.398;-1.514;2023-04-03T02:24:49;3.30;99.90
21104;DHT22;10710;53.398;-1.514;2023-04-03T02:27:36;3.20;99.90
21104;DHT22;10710;53.398;-1.514;2023-04-03T02:30:20;3.20;99.90
21104;DHT22;10710;53.398;-1.514;2023-04-03T02:33:04;3.20;99.90
21104;DHT22;10710;53.398;-1.514;2023-04-03T02:35:53;3.30;99.90
21104;DHT22;10710;53.398;-1.514;2023-04-03T02:38:37;3.20;99.90
21104;DHT22;10710;53.398;-1.514;2023-04-03T02:41:22;3.30;99.90
21104;DHT22;10710;53.398;-1.514;2023-04-03T02:44:07;3.20;99.90
21104;DHT22;10710;53.398;-1.514;2023-04-03T02:46:53;3.20;99.90
21104;DHT22;10710;53.398;-1.514;2023-04-03T02:49:37;3.10;99.90
21104;DHT22;10710;53.398;-1.514;2023-04-03T02:52:22;3.20;99.90
21104;DHT22;10710;53.398;-1.514;2023-04-03T02:55:06;3.10;99.90
21104;DHT22;10710;53.398;-1.514;2023-04-03T02:57:50;3.10;99.90
21104;DHT22;10710;53.398;-1.514;2023-04-03T03:00:34;3.00;99.90
21104;DHT22;10710;53.398;-1.514;2023-04-03T03:03:19;3.10;99.90
21104;DHT22;10710;53.398;-1.514;2023-04-03T03:06:13;3.10;99.90
21104;DHT22;10710;53.398;-1.514;2023-04-03T03:08:57;3.00;99.90
21104;DHT22;10710;53.398;-1.514;2023-04-03T03:11:42;3.00;99.90
21104;DHT22;10710;53.398;-1.514;2023-04-03T03:14:26;3.00;99.90
21104;DHT22;10710;53.398;-1.514;2023-04-03T03:17:11;3.00;99.90
21104;DHT22;10710;53.398;-1.514;2023-04-03T03:19:55;3.00;99.90
21104;DHT22;10710;53.398;-1.514;2023-04-03T03:22:39;3.00;99.90
21104;DHT22;10710;53.398;-1.514;2023-04-03T03:25:23;3.00;99.90
21104;DHT22;10710;53.398;-1.514;2023-04-03T03:28:08;2.90;99.90
21104;DHT22;10710;53.398;-1.514;2023-04-03T03:30:52;3.00;99.90
21104;DHT22;10710;53.398;-1.514;2023-04-03T03:33:37;3.00;99.90
21104;DHT22;10710;53.398;-1.514;2023-04-03T03:36:21;3.00;99.90
21104;DHT22;10710;53.398;-1.514;2023-04-03T03:39:05;2.90;99.90
21104;DHT22;10710;53.398;-1.514;2023-04-03T03:41:50;2.80;99.90
21104;DHT22;10710;53.398;-1.514;2023-04-03T03:44:34;2.90;99.90
21104;DHT22;10710;53.398;-1.514;2023-04-03T03:47:18;2.80;99.90
21104;DHT22;10710;53.398;-1.514;2023-04-03T03:50:03;2.80;99.90
21104;DHT22;10710;53.398;-1.514;2023-04-03T03:52:48;2.80;99.90
21104;DHT22;10710;53.398;-1.514;2023-04-03T03:55:32;2.80;99.90
21104;DHT22;10710;53.398;-1.514;2023-04-03T03:58:16;2.80;99.90
21104;DHT22;10710;53.398;-1.514;2023-04-03T04:01:01;2.70;99.90
21104;DHT22;10710;53.398;-1.514;2023-04-03T04:03:46;2.70;99.90
21104;DHT22;10710;53.398;-1.514;2023-04-03T04:06:30;2.60;99.90
21104;DHT22;10710;53.398;-1.514;2023-04-03T04:09:14;2.60;99.90
21104;DHT22;10710;53.398;-1.514;2023-04-03T04:11:58;2.60;99.90
21104;DHT22;10710;53.398;-1.514;2023-04-03T04:14:42;2.60;99.90
21104;DHT22;10710;53.398;-1.514;2023-04-03T04:17:30;2.50;99.90
21104;DHT22;10710;53.398;-1.514;2023-04-03T04:20:14;2.50;99.90
21104;DHT22;10710;53.398;-1.514;2023-04-03T04:22:59;2.50;99.90
21104;DHT22;10710;53.398;-1.514;2023-04-03T04:25:49;2.50;99.90
21104;DHT22;10710;53.398;-1.514;2023-04-03T04:28:33;2.50;99.90
21104;DHT22;10710;53.398;-1.514;2023-04-03T04:31:17;2.50;99.90
21104;DHT22;10710;53.398;-1.514;2023-04-03T04:34:02;2.50;99.90
21104;DHT22;10710;53.398;-1.514;2023-04-03T04:36:46;2.50;99.90
21104;DHT22;10710;53.398;-1.514;2023-04-03T04:39:30;2.50;99.90
21104;DHT22;10710;53.398;-1.514;2023-04-03T04:42:14;2.50;99.90
21104;DHT22;10710;53.398;-1.514;2023-04-03T04:44:59;2.50;99.90
21104;DHT22;10710;53.398;-1.514;2023-04-03T04:47:43;2.50;99.90
21104;DHT22;10710;53.398;-1.514;2023-04-03T04:50:27;2.50;99.90
21104;DHT22;10710;53.398;-1.514;2023-04-03T04:53:11;2.50;99.90
21104;DHT22;10710;53.398;-1.514;2023-04-03T04:55:55;2.50;99.90
21104;DHT22;10710;53.398;-1.514;2023-04-03T04:58:40;2.40;99.90
21104;DHT22;10710;53.398;-1.514;2023-04-03T05:01:24;2.40;99.90
21104;DHT22;10710;53.398;-1.514;2023-04-03T05:04:09;2.40;99.90
21104;DHT22;10710;53.398;-1.514;2023-04-03T05:06:54;2.40;99.90
21104;DHT22;10710;53.398;-1.514;2023-04-03T05:09:38;2.30;99.90
21104;DHT22;10710;53.398;-1.514;2023-04-03T05:12:25;2.40;99.90
21104;DHT22;10710;53.398;-1.514;2023-04-03T05:15:10;2.40;99.90
21104;DHT22;10710;53.398;-1.514;2023-04-03T05:17:54;2.30;99.90
21104;DHT22;10710;53.398;-1.514;2023-04-03T05:20:38;2.30;99.90
21104;DHT22;10710;53.398;-1.514;2023-04-03T05:23:22;2.20;99.90
21104;DHT22;10710;53.398;-1.514;2023-04-03T05:26:07;2.10;99.90
21104;DHT22;10710;53.398;-1.514;2023-04-03T05:28:52;2.10;99.90
21104;DHT22;10710;53.398;-1.514;2023-04-03T05:31:36;2.10;99.90
21104;DHT22;10710;53.398;-1.514;2023-04-03T05:34:21;2.20;99.90
21104;DHT22;10710;53.398;-1.514;2023-04-03T05:37:06;2.20;99.90
21104;DHT22;10710;53.398;-1.514;2023-04-03T05:39:50;2.10;99.90
21104;DHT22;10710;53.398;-1.514;2023-04-03T05:42:35;2.10;99.90
21104;DHT22;10710;53.398;-1.514;2023-04-03T05:45:19;2.10;99.90
21104;DHT22;10710;53.398;-1.514;2023-04-03T05:48:04;2.10;99.90
21104;DHT22;10710;53.398;-1.514;2023-04-03T05:50:48;2.20;99.90
21104;DHT22;10710;53.398;-1.514;2023-04-03T05:53:35;2.20;99.90
21104;DHT22;10710;53.398;-1.514;2023-04-03T05:56:21;2.30;99.90
21104;DHT22;10710;53.398;-1.514;2023-04-03T05:59:05;2.30;99.90
21104;DHT22;10710;53.398;-1.514;2023-04-03T06:01:49;2.30;99.90
21104;DHT22;10710;53.398;-1.514;2023-04-03T06:04:34;2.30;99.90
21104;DHT22;10710;53.398;-1.514;2023-04-03T06:07:20;2.30;99.90
21104;DHT22;10710;53.398;-1.514;2023-04-03T06:10:07;2.40;99.90
21104;DHT22;10710;53.398;-1.514;2023-04-03T06:12:52;2.40;99.90
21104;DHT22;10710;53.398;-1.514;2023-04-03T06:15:36;2.50;99.90
21104;DHT22;10710;53.398;-1.514;2023-04-03T06:18:22;2.60;99.90
21104;DHT22;10710;53.398;-1.514;2023-04-03T06:21:06;2.70;99.90
21104;DHT22;10710;53.398;-1.514;2023-04-03T06:23:51;2.80;99.90
21104;DHT22;10710;53.398;-1.514;2023-04-03T06:26:35;2.80;99.90
21104;DHT22;10710;53.398;-1.514;2023-04-03T06:29:21;2.80;99.90
21104;DHT22;10710;53.398;-1.514;2023-04-03T06:32:05;2.90;99.90
21104;DHT22;10710;53.398;-1.514;2023-04-03T06:34:50;2.90;99.90
21104;DHT22;10710;53.398;-1.514;2023-04-03T06:37:34;3.00;99.90
21104;DHT22;10710;53.398;-1.514;2023-04-03T06:40:23;3.00;99.90
21104;DHT22;10710;53.398;-1.514;2023-04-03T06:43:07;3.10;99.90
21104;DHT22;10710;53.398;-1.514;2023-04-03T06:45:53;3.20;99.90
21104;DHT22;10710;53.398;-1.514;2023-04-03T06:48:37;3.30;99.90
21104;DHT22;10710;53.398;-1.514;2023-04-03T06:51:26;3.50;99.90
21104;DHT22;10710;53.398;-1.514;2023-04-03T06:54:11;3.60;99.90
21104;DHT22;10710;53.398;-1.514;2023-04-03T06:56:56;3.70;99.90
21104;DHT22;10710;53.398;-1.514;2023-04-03T06:59:40;3.80;99.90
21104;DHT22;10710;53.398;-1.514;2023-04-03T07:02:24;3.90;99.90
21104;DHT22;10710;53.398;-1.514;2023-04-03T07:05:09;4.00;99.90
21104;DHT22;10710;53.398;-1.514;2023-04-03T07:07:59;4.20;99.90
21104;DHT22;10710;53.398;-1.514;2023-04-03T07:10:44;4.30;99.90
21104;DHT22;10710;53.398;-1.514;2023-04-03T07:13:28;4.30;99.90
21104;DHT22;10710;53.398;-1.514;2023-04-03T07:16:13;4.40;99.90
21104;DHT22;10710;53.398;-1.514;2023-04-03T07:18:57;4.60;99.90
21104;DHT22;10710;53.398;-1.514;2023-04-03T07:21:42;4.60;99.90
21104;DHT22;10710;53.398;-1.514;2023-04-03T07:24:27;4.70;99.90
21104;DHT22;10710;53.398;-1.514;2023-04-03T07:27:12;4.80;99.90
21104;DHT22;10710;53.398;-1.514;2023-04-03T07:29:56;4.90;99.90
21104;DHT22;10710;53.398;-1.514;2023-04-03T07:32:41;5.10;99.90
21104;DHT22;10710;53.398;-1.514;2023-04-03T07:35:25;5.20;99.90
21104;DHT22;10710;53.398;-1.514;2023-04-03T07:38:10;5.30;99.90
21104;DHT22;10710;53.398;-1.514;2023-04-03T07:40:55;5.40;99.90
21104;DHT22;10710;53.398;-1.514;2023-04-03T07:43:39;5.50;99.90
21104;DHT22;10710;53.398;-1.514;2023-04-03T07:46:25;5.60;99.90
21104;DHT22;10710;53.398;-1.514;2023-04-03T07:49:10;5.70;99.90
21104;DHT22;10710;53.398;-1.514;2023-04-03T07:51:54;5.80;99.90
21104;DHT22;10710;53.398;-1.514;2023-04-03T07:54:38;6.00;99.90
21104;DHT22;10710;53.398;-1.514;2023-04-03T07:57:22;6.10;99.90
21104;DHT22;10710;53.398;-1.514;2023-04-03T08:00:07;6.30;99.90
21104;DHT22;10710;53.398;-1.514;2023-04-03T08:02:52;6.40;99.90
21104;DHT22;10710;53.398;-1.514;2023-04-03T08:05:37;6.50;99.90
21104;DHT22;10710;53.398;-1.514;2023-04-03T08:08:23;6.60;99.90
21104;DHT22;10710;53.398;-1.514;2023-04-03T08:11:07;6.70;99.90
21104;DHT22;10710;53.398;-1.514;2023-04-03T08:13:52;6.70;99.90
21104;DHT22;10710;53.398;-1.514;2023-04-03T08:16:37;6.80;99.90
21104;DHT22;10710;53.398;-1.514;2023-04-03T08:19:21;6.80;99.90
21104;DHT22;10710;53.398;-1.514;2023-04-03T08:22:06;6.70;99.90
21104;DHT22;10710;53.398;-1.514;2023-04-03T08:24:50;6.70;99.90
21104;DHT22;10710;53.398;-1.514;2023-04-03T08:27:35;7.10;99.90
21104;DHT22;10710;53.398;-1.514;2023-04-03T08:30:19;7.60;99.90
21104;DHT22;10710;53.398;-1.514;2023-04-03T08:33:04;7.80;99.90
21104;DHT22;10710;53.398;-1.514;2023-04-03T08:35:48;7.90;99.90
21104;DHT22;10710;53.398;-1.514;2023-04-03T08:38:32;7.90;99.90
21104;DHT22;10710;53.398;-1.514;2023-04-03T08:41:29;7.90;99.90
21104;DHT22;10710;53.398;-1.514;2023-04-03T08:47:25;8.00;99.90
21104;DHT22;10710;53.398;-1.514;2023-04-03T08:50:29;8.10;99.90
21104;DHT22;10710;53.398;-1.514;2023-04-03T08:53:19;8.30;99.90
21104;DHT22;10710;53.398;-1.514;2023-04-03T08:56:09;8.30;99.90
21104;DHT22;10710;53.398;-1.514;2023-04-03T08:59:00;8.50;99.90
21104;DHT22;10710;53.398;-1.514;2023-04-03T09:01:46;8.60;99.90
21104;DHT22;10710;53.398;-1.514;2023-04-03T09:04:31;8.70;99.90
21104;DHT22;10710;53.398;-1.514;2023-04-03T09:07:30;8.80;99.90
21104;DHT22;10710;53.398;-1.514;2023-04-03T09:10:26;9.00;99.90
21104;DHT22;10710;53.398;-1.514;2023-04-03T09:16:20;8.80;99.90
21104;DHT22;10710;53.398;-1.514;2023-04-03T09:22:19;8.90;99.90
21104;DHT22;10710;53.398;-1.514;2023-04-03T09:28:06;8.70;99.90
21104;DHT22;10710;53.398;-1.514;2023-04-03T09:30:53;8.80;99.90
21104;DHT22;10710;53.398;-1.514;2023-04-03T09:33:37;9.00;99.90
21104;DHT22;10710;53.398;-1.514;2023-04-03T09:36:45;9.20;99.90
21104;DHT22;10710;53.398;-1.514;2023-04-03T09:39:29;9.50;99.90
21104;DHT22;10710;53.398;-1.514;2023-04-03T09:42:25;9.50;99.90
21104;DHT22;10710;53.398;-1.514;2023-04-03T09:45:32;9.30;99.90
21104;DHT22;10710;53.398;-1.514;2023-04-03T09:48:19;9.40;99.90
21104;DHT22;10710;53.398;-1.514;2023-04-03T09:51:04;9.30;99.90
21104;DHT22;10710;53.398;-1.514;2023-04-03T09:53:49;9.20;99.90
21104;DHT22;10710;53.398;-1.514;2023-04-03T09:56:33;9.30;99.90
21104;DHT22;10710;53.398;-1.514;2023-04-03T09:59:19;9.40;99.90
21104;DHT22;10710;53.398;-1.514;2023-04-03T10:02:39;9.50;99.90
21104;DHT22;10710;53.398;-1.514;2023-04-03T10:05:30;9.60;99.90
21104;DHT22;10710;53.398;-1.514;2023-04-03T10:11:19;9.40;99.90
21104;DHT22;10710;53.398;-1.514;2023-04-03T10:14:04;9.50;99.90
21104;DHT22;10710;53.398;-1.514;2023-04-03T10:23:21;9.70;99.90
21104;DHT22;10710;53.398;-1.514;2023-04-03T10:38:27;9.70;99.90
21104;DHT22;10710;53.398;-1.514;2023-04-03T10:41:23;9.60;99.90
21104;DHT22;10710;53.398;-1.514;2023-04-03T10:44:48;9.70;99.90
21104;DHT22;10710;53.398;-1.514;2023-04-03T10:47:56;9.60;99.90
21104;DHT22;10710;53.398;-1.514;2023-04-03T10:51:06;9.60;99.90
21104;DHT22;10710;53.398;-1.514;2023-04-03T10:53:57;9.80;99.90
21104;DHT22;10710;53.398;-1.514;2023-04-03T10:56:51;9.70;99.90
21104;DHT22;10710;53.398;-1.514;2023-04-03T10:59:59;9.80;99.90
21104;DHT22;10710;53.398;-1.514;2023-04-03T11:02:52;10.10;99.90
21104;DHT22;10710;53.398;-1.514;2023-04-03T11:05:48;10.20;99.90
21104;DHT22;10710;53.398;-1.514;2023-04-03T11:08:57;10.20;99.90
21104;DHT22;10710;53.398;-1.514;2023-04-03T11:11:43;10.40;99.90
21104;DHT22;10710;53.398;-1.514;2023-04-03T11:14:31;10.40;99.90
21104;DHT22;10710;53.398;-1.514;2023-04-03T11:20:28;10.50;99.90
21104;DHT22;10710;53.398;-1.514;2023-04-03T11:23:26;10.60;99.90
21104;DHT22;10710;53.398;-1.514;2023-04-03T11:26:27;10.50;99.90
21104;DHT22;10710;53.398;-1.514;2023-04-03T11:29:18;10.50;99.90
21104;DHT22;10710;53.398;-1.514;2023-04-03T11:34:54;10.40;99.90
21104;DHT22;10710;53.398;-1.514;2023-04-03T11:37:49;10.50;99.90
21104;DHT22;10710;53.398;-1.514;2023-04-03T11:40:36;10.60;99.90
21104;DHT22;10710;53.398;-1.514;2023-04-03T11:43:30;10.60;99.90
21104;DHT22;10710;53.398;-1.514;2023-04-03T11:46:15;10.60;99.90
21104;DHT22;10710;53.398;-1.514;2023-04-03T11:49:02;10.70;99.90
21104;DHT22;10710;53.398;-1.514;2023-04-03T11:51:47;10.70;99.90
21104;DHT22;10710;53.398;-1.514;2023-04-03T11:54:42;10.90;99.90
21104;DHT22;10710;53.398;-1.514;2023-04-03T12:04:16;11.00;99.90
21104;DHT22;10710;53.398;-1.514;2023-04-03T12:12:35;11.10;99.90
21104;DHT22;10710;53.398;-1.514;2023-04-03T12:15:47;11.30;99.90
21104;DHT22;10710;53.398;-1.514;2023-04-03T12:19:02;11.30;99.90
21104;DHT22;10710;53.398;-1.514;2023-04-03T12:24:38;11.20;99.90
21104;DHT22;10710;53.398;-1.514;2023-04-03T12:27:47;11.30;99.90
21104;DHT22;10710;53.398;-1.514;2023-04-03T12:30:31;11.40;99.90
21104;DHT22;10710;53.398;-1.514;2023-04-03T12:37:03;11.50;99.90
21104;DHT22;10710;53.398;-1.514;2023-04-03T12:46:43;11.70;99.90
21104;DHT22;10710;53.398;-1.514;2023-04-03T12:52:32;11.80;99.90
21104;DHT22;10710;53.398;-1.514;2023-04-03T12:55:19;11.70;99.90
21104;DHT22;10710;53.398;-1.514;2023-04-03T12:58:24;11.70;99.90
21104;DHT22;10710;53.398;-1.514;2023-04-03T13:01:15;11.80;99.90
21104;DHT22;10710;53.398;-1.514;2023-04-03T13:04:01;11.90;99.90
21104;DHT22;10710;53.398;-1.514;2023-04-03T13:06:46;11.90;99.90
21104;DHT22;10710;53.398;-1.514;2023-04-03T13:09:31;12.00;99.90
21104;DHT22;10710;53.398;-1.514;2023-04-03T13:12:16;12.20;99.90
21104;DHT22;10710;53.398;-1.514;2023-04-03T13:15:40;12.20;99.90
21104;DHT22;10710;53.398;-1.514;2023-04-03T13:18:29;12.30;99.90
21104;DHT22;10710;53.398;-1.514;2023-04-03T13:21:18;12.40;99.90
21104;DHT22;10710;53.398;-1.514;2023-04-03T13:24:04;12.30;99.90
21104;DHT22;10710;53.398;-1.514;2023-04-03T13:26:48;12.40;99.90
21104;DHT22;10710;53.398;-1.514;2023-04-03T13:29:37;12.60;99.90
21104;DHT22;10710;53.398;-1.514;2023-04-03T13:32:23;12.70;99.90
21104;DHT22;10710;53.398;-1.514;2023-04-03T13:35:29;12.80;99.90
21104;DHT22;10710;53.398;-1.514;2023-04-03T13:41:05;12.90;99.90
21104;DHT22;10710;53.398;-1.514;2023-04-03T13:53:01;14.60;99.90
21104;DHT22;10710;53.398;-1.514;2023-04-03T13:55:56;15.00;99.90
21104;DHT22;10710;53.398;-1.514;2023-04-03T13:58:53;15.40;99.90
21104;DHT22;10710;53.398;-1.514;2023-04-03T14:02:46;15.90;99.90
21104;DHT22;10710;53.398;-1.514;2023-04-03T14:05:01;16.40;99.90
21104;DHT22;10710;53.398;-1.514;2023-04-03T14:07:48;16.90;99.90
21104;DHT22;10710;53.398;-1.514;2023-04-03T14:10:33;17.30;99.90
21104;DHT22;10710;53.398;-1.514;2023-04-03T14:13:19;17.80;99.90
21104;DHT22;10710;53.398;-1.514;2023-04-03T14:16:04;17.80;99.90
21104;DHT22;10710;53.398;-1.514;2023-04-03T14:18:50;17.50;99.90
21104;DHT22;10710;53.398;-1.514;2023-04-03T14:21:35;18.00;99.90
21104;DHT22;10710;53.398;-1.514;2023-04-03T14:24:20;18.80;99.90
21104;DHT22;10710;53.398;-1.514;2023-04-03T14:27:12;19.00;99.90
21104;DHT22;10710;53.398;-1.514;2023-04-03T14:29:59;18.90;99.90
21104;DHT22;10710;53.398;-1.514;2023-04-03T14:32:44;19.30;99.90
21104;DHT22;10710;53.398;-1.514;2023-04-03T14:35:28;19.80;99.90
21104;DHT22;10710;53.398;-1.514;2023-04-03T14:38:26;19.60;99.90
21104;DHT22;10710;53.398;-1.514;2023-04-03T14:41:16;20.00;99.90
21104;DHT22;10710;53.398;-1.514;2023-04-03T14:44:01;19.90;99.90
21104;DHT22;10710;53.398;-1.514;2023-04-03T14:46:45;20.10;99.90
21104;DHT22;10710;53.398;-1.514;2023-04-03T14:49:30;20.30;99.90
21104;DHT22;10710;53.398;-1.514;2023-04-03T14:52:25;20.50;99.90
21104;DHT22;10710;53.398;-1.514;2023-04-03T14:55:13;20.90;99.90
21104;DHT22;10710;53.398;-1.514;2023-04-03T14:57:59;21.00;99.90
21104;DHT22;10710;53.398;-1.514;2023-04-03T15:00:44;20.80;99.90
21104;DHT22;10710;53.398;-1.514;2023-04-03T15:03:28;20.80;99.90
21104;DHT22;10710;53.398;-1.514;2023-04-03T15:06:14;21.20;99.90
21104;DHT22;10710;53.398;-1.514;2023-04-03T15:08:59;21.70;99.90
21104;DHT22;10710;53.398;-1.514;2023-04-03T15:11:44;21.80;99.90
21104;DHT22;10710;53.398;-1.514;2023-04-03T15:14:28;22.30;99.90
21104;DHT22;10710;53.398;-1.514;2023-04-03T15:17:17;22.80;99.90
21104;DHT22;10710;53.398;-1.514;2023-04-03T15:20:05;23.10;99.90
21104;DHT22;10710;53.398;-1.514;2023-04-03T15:22:55;23.40;99.90
21104;DHT22;10710;53.398;-1.514;2023-04-03T15:25:40;23.00;99.90
21104;DHT22;10710;53.398;-1.514;2023-04-03T15:28:36;22.60;99.90
21104;DHT22;10710;53.398;-1.514;2023-04-03T15:31:21;22.60;99.90
21104;DHT22;10710;53.398;-1.514;2023-04-03T15:34:05;22.30;99.90
21104;DHT22;10710;53.398;-1.514;2023-04-03T15:36:50;22.50;99.90
21104;DHT22;10710;53.398;-1.514;2023-04-03T15:39:36;22.00;99.90
21104;DHT22;10710;53.398;-1.514;2023-04-03T15:42:20;22.30;99.90
21104;DHT22;10710;53.398;-1.514;2023-04-03T15:45:05;22.40;99.90
21104;DHT22;10710;53.398;-1.514;2023-04-03T15:47:49;22.10;99.90
21104;DHT22;10710;53.398;-1.514;2023-04-03T15:50:34;22.60;99.90
21104;DHT22;10710;53.398;-1.514;2023-04-03T15:53:19;22.70;99.90
21104;DHT22;10710;53.398;-1.514;2023-04-03T15:56:04;22.90;99.90
21104;DHT22;10710;53.398;-1.514;2023-04-03T15:58:48;22.90;99.90
21104;DHT22;10710;53.398;-1.514;2023-04-03T16:01:32;22.70;99.90
21104;DHT22;10710;53.398;-1.514;2023-04-03T16:04:18;23.40;99.90
21104;DHT22;10710;53.398;-1.514;2023-04-03T16:07:03;23.50;99.40
21104;DHT22;10710;53.398;-1.514;2023-04-03T16:09:47;23.10;99.60
21104;DHT22;10710;53.398;-1.514;2023-04-03T16:12:31;23.20;99.40
21104;DHT22;10710;53.398;-1.514;2023-04-03T16:15:16;23.70;99.10
21104;DHT22;10710;53.398;-1.514;2023-04-03T16:18:00;24.40;99.10
21104;DHT22;10710;53.398;-1.514;2023-04-03T16:20:44;24.20;97.70
21104;DHT22;10710;53.398;-1.514;2023-04-03T16:23:29;24.60;98.30
21104;DHT22;10710;53.398;-1.514;2023-04-03T16:26:14;24.50;98.00
21104;DHT22;10710;53.398;-1.514;2023-04-03T16:28:59;24.20;97.80
21104;DHT22;10710;53.398;-1.514;2023-04-03T16:31:43;24.00;97.90
21104;DHT22;10710;53.398;-1.514;2023-04-03T16:34:27;23.50;98.80
21104;DHT22;10710;53.398;-1.514;2023-04-03T16:37:14;22.60;98.50
21104;DHT22;10710;53.398;-1.514;2023-04-03T16:39:58;20.30;99.90
21104;DHT22;10710;53.398;-1.514;2023-04-03T16:42:42;18.60;99.90
21104;DHT22;10710;53.398;-1.514;2023-04-03T16:45:26;17.30;99.90
21104;DHT22;10710;53.398;-1.514;2023-04-03T16:48:11;16.30;99.90
21104;DHT22;10710;53.398;-1.514;2023-04-03T16:50:55;16.00;99.90
21104;DHT22;10710;53.398;-1.514;2023-04-03T16:53:39;15.50;99.90
21104;DHT22;10710;53.398;-1.514;2023-04-03T16:56:24;15.10;99.90
21104;DHT22;10710;53.398;-1.514;2023-04-03T16:59:10;14.90;99.90
21104;DHT22;10710;53.398;-1.514;2023-04-03T17:01:54;14.80;99.90
21104;DHT22;10710;53.398;-1.514;2023-04-03T17:04:39;14.60;99.90
21104;DHT22;10710;53.398;-1.514;2023-04-03T17:07:24;14.60;99.90
21104;DHT22;10710;53.398;-1.514;2023-04-03T17:10:09;14.50;99.90
21104;DHT22;10710;53.398;-1.514;2023-04-03T17:12:54;14.30;99.90
21104;DHT22;10710;53.398;-1.514;2023-04-03T17:15:38;14.00;99.90
21104;DHT22;10710;53.398;-1.514;2023-04-03T17:18:23;13.90;99.90
21104;DHT22;10710;53.398;-1.514;2023-04-03T17:21:08;13.80;99.90
21104;DHT22;10710;53.398;-1.514;2023-04-03T17:23:56;13.80;99.90
21104;DHT22;10710;53.398;-1.514;2023-04-03T17:26:41;13.80;99.90
21104;DHT22;10710;53.398;-1.514;2023-04-03T17:29:26;13.90;99.90
21104;DHT22;10710;53.398;-1.514;2023-04-03T17:32:10;13.80;99.90
21104;DHT22;10710;53.398;-1.514;2023-04-03T17:34:55;13.70;99.90
21104;DHT22;10710;53.398;-1.514;2023-04-03T17:37:39;13.50;99.90
21104;DHT22;10710;53.398;-1.514;2023-04-03T17:40:24;13.10;99.90
21104;DHT22;10710;53.398;-1.514;2023-04-03T17:43:08;13.00;99.90
21104;DHT22;10710;53.398;-1.514;2023-04-03T17:45:53;13.00;99.90
21104;DHT22;10710;53.398;-1.514;2023-04-03T17:48:40;13.00;99.90
21104;DHT22;10710;53.398;-1.514;2023-04-03T17:51:25;13.00;99.90
21104;DHT22;10710;53.398;-1.514;2023-04-03T17:54:09;13.10;99.90
21104;DHT22;10710;53.398;-1.514;2023-04-03T17:56:54;13.00;99.90
21104;DHT22;10710;53.398;-1.514;2023-04-03T17:59:38;13.00;99.90
21104;DHT22;10710;53.398;-1.514;2023-04-03T18:02:22;12.80;99.90
21104;DHT22;10710;53.398;-1.514;2023-04-03T18:05:07;12.60;99.90
21104;DHT22;10710;53.398;-1.514;2023-04-03T18:07:53;12.70;99.90
21104;DHT22;10710;53.398;-1.514;2023-04-03T18:10:38;12.80;99.90
21104;DHT22;10710;53.398;-1.514;2023-04-03T18:13:23;12.70;99.90
21104;DHT22;10710;53.398;-1.514;2023-04-03T18:16:09;12.70;99.90
21104;DHT22;10710;53.398;-1.514;2023-04-03T18:18:55;12.80;99.90
21104;DHT22;10710;53.398;-1.514;2023-04-03T18:21:39;12.80;99.90
21104;DHT22;10710;53.398;-1.514;2023-04-03T18:24:24;12.70;99.90
21104;DHT22;10710;53.398;-1.514;2023-04-03T18:27:12;12.70;99.90
21104;DHT22;10710;53.398;-1.514;2023-04-03T18:30:02;12.50;99.90
21104;DHT22;10710;53.398;-1.514;2023-04-03T18:32:49;12.30;99.90
21104;DHT22;10710;53.398;-1.514;2023-04-03T18:35:34;12.10;99.90
21104;DHT22;10710;53.398;-1.514;2023-04-03T18:38:18;12.00;99.90
21104;DHT22;10710;53.398;-1.514;2023-04-03T18:41:04;12.00;99.90
21104;DHT22;10710;53.398;-1.514;2023-04-03T18:43:50;12.00;99.90
21104;DHT22;10710;53.398;-1.514;2023-04-03T18:46:36;11.90;99.90
21104;DHT22;10710;53.398;-1.514;2023-04-03T18:49:21;11.90;99.90
21104;DHT22;10710;53.398;-1.514;2023-04-03T18:52:05;11.80;99.90